createdAt,value
2022-11-04T00:02:08.560Z,100580.66
2022-11-04T00:04:35.209Z,100585.09
2022-11-04T00:07:01.750Z,100574.53
2022-11-04T00:09:33.008Z,100575.72
2022-11-04T00:12:20.229Z,100567.50
2022-11-04T00:14:46.677Z,100570.88
2022-11-04T00:17:24.924Z,100563.03
2022-11-04T00:20:12.379Z,100573.34
2022-11-04T00:23:00.285Z,100573.72
2022-11-04T00:25:45.878Z,100574.31
2022-11-04T00:28:40.770Z,100572.66
2022-11-04T00:31:26.547Z,100564.25
2022-11-04T00:33:54.827Z,100559.78
2022-11-04T00:36:22.701Z,100553.50
2022-11-04T00:38:49.304Z,100556.03
2022-11-04T00:41:28.206Z,100551.72
2022-11-04T00:44:01.901Z,100549.53
2022-11-04T00:46:30.031Z,100550.50
2022-11-04T00:48:56.830Z,100554.38
2022-11-04T00:51:23.894Z,100551.69
2022-11-04T00:53:57.744Z,100546.13
2022-11-04T00:56:24.314Z,100538.31
2022-11-04T00:58:50.831Z,100531.38
2022-11-04T01:01:18.527Z,100522.88
2022-11-04T01:03:52.503Z,100523.16
2022-11-04T01:06:20.643Z,100513.06
2022-11-04T01:08:54.773Z,100510.72
2022-11-04T01:11:21.327Z,100501.84
2022-11-04T01:13:50.604Z,100499.91
2022-11-04T01:16:17.399Z,100500.69
2022-11-04T01:18:48.360Z,100492.22
2022-11-04T01:21:16.209Z,100490.97
2022-11-04T01:23:44.230Z,100486.84
2022-11-04T01:26:14.577Z,100490.13
2022-11-04T01:28:42.241Z,100485.09
2022-11-04T01:31:14.107Z,100481.00
2022-11-04T01:33:40.721Z,100482.47
2022-11-04T01:36:08.057Z,100472.31
2022-11-04T01:38:34.861Z,100478.22
2022-11-04T01:41:01.983Z,100466.88
2022-11-04T01:43:49.636Z,100462.88
2022-11-04T01:46:21.731Z,100466.41
2022-11-04T01:48:48.181Z,100461.69
2022-11-04T01:51:14.912Z,100459.53
2022-11-04T01:53:42.870Z,100466.13
2022-11-04T01:56:14.539Z,100448.88
2022-11-04T01:58:51.217Z,100449.06
2022-11-04T02:01:18.152Z,100436.63
2022-11-04T02:03:52.100Z,100435.25
2022-11-04T02:06:19.934Z,100432.13
2022-11-04T02:08:46.982Z,100428.78
2022-11-04T02:11:33.524Z,100425.50
2022-11-04T02:14:00.798Z,100422.41
2022-11-04T02:16:41.959Z,100410.91
2022-11-04T02:19:52.951Z,100410.19
2022-11-04T02:22:38.931Z,100410.69
2022-11-04T02:25:24.076Z,100396.50
2022-11-04T02:28:26.448Z,100398.84
2022-11-04T02:30:53.679Z,100385.16
2022-11-04T02:33:24.541Z,100389.59
2022-11-04T02:36:07.362Z,100378.38
2022-11-04T02:38:56.182Z,100381.44
2022-11-04T02:41:42.318Z,100380.47
2022-11-04T02:44:11.704Z,100377.84
2022-11-04T02:46:45.906Z,100376.91
2022-11-04T02:49:15.832Z,100368.38
2022-11-04T02:51:53.736Z,100375.13
2022-11-04T02:54:28.092Z,100373.47
2022-11-04T02:56:57.017Z,100368.03
2022-11-04T02:59:33.800Z,100359.09
2022-11-04T03:02:02.135Z,100359.41
2022-11-04T03:04:32.203Z,100356.00
2022-11-04T03:07:00.487Z,100352.47
2022-11-04T03:09:29.156Z,100351.38
2022-11-04T03:11:58.358Z,100352.63
2022-11-04T03:14:41.634Z,100350.78
2022-11-04T03:17:14.991Z,100346.16
2022-11-04T03:19:58.954Z,100344.81
2022-11-04T03:22:29.956Z,100352.19
2022-11-04T03:24:56.953Z,100353.56
2022-11-04T03:27:38.962Z,100356.19
2022-11-04T03:30:23.783Z,100343.72
2022-11-04T03:33:05.995Z,100331.44
2022-11-04T03:35:32.785Z,100325.44
2022-11-04T03:37:59.971Z,100323.28
2022-11-04T03:40:26.472Z,100325.75
2022-11-04T03:42:58.814Z,100316.81
2022-11-04T03:45:26.898Z,100318.34
2022-11-04T03:47:53.542Z,100318.34
2022-11-04T03:50:26.222Z,100303.59
2022-11-04T03:52:52.786Z,100309.59
2022-11-04T03:55:19.360Z,100306.63
2022-11-04T03:57:53.973Z,100308.81
2022-11-04T04:00:22.988Z,100308.53
2022-11-04T04:02:56.066Z,100302.66
2022-11-04T04:05:25.115Z,100300.69
2022-11-04T04:08:29.281Z,100304.38
2022-11-04T04:11:09.302Z,100296.69
2022-11-04T04:13:42.897Z,100302.22
2022-11-04T04:16:16.462Z,100295.16
2022-11-04T04:18:58.536Z,100286.41
2022-11-04T04:21:53.300Z,100288.06
2022-11-04T04:24:40.431Z,100286.25
2022-11-04T04:27:25.557Z,100291.03
2022-11-04T04:29:53.442Z,100286.06
2022-11-04T04:32:22.023Z,100283.28
2022-11-04T04:34:48.482Z,100283.28
2022-11-04T04:37:20.066Z,100281.44
2022-11-04T04:40:32.656Z,100287.72
2022-11-04T04:43:17.504Z,100282.25
2022-11-04T04:45:49.686Z,100286.09
2022-11-04T04:48:16.637Z,100279.47
2022-11-04T04:50:49.833Z,100281.22
2022-11-04T04:53:16.382Z,100274.91
2022-11-04T04:55:42.804Z,100279.50
2022-11-04T04:58:09.957Z,100277.97
2022-11-04T05:00:36.595Z,100277.16
2022-11-04T05:03:03.061Z,100283.94
2022-11-04T05:05:29.646Z,100277.94
2022-11-04T05:07:56.117Z,100283.19
2022-11-04T05:10:22.871Z,100282.69
2022-11-04T05:13:07.712Z,100268.69
2022-11-04T05:15:35.432Z,100265.84
2022-11-04T05:18:02.548Z,100279.50
2022-11-04T05:20:30.570Z,100278.53
2022-11-04T05:22:57.085Z,100273.03
2022-11-04T05:25:26.635Z,100263.16
2022-11-04T05:27:53.311Z,100263.38
2022-11-04T05:30:19.893Z,100257.47
2022-11-04T05:32:46.423Z,100257.56
2022-11-04T05:35:12.903Z,100265.09
2022-11-04T05:37:39.343Z,100261.41
2022-11-04T05:40:06.301Z,100263.84
2022-11-04T05:42:33.210Z,100266.00
2022-11-04T05:44:59.666Z,100262.19
2022-11-04T05:47:26.119Z,100260.19
2022-11-04T05:49:52.690Z,100254.06
2022-11-04T05:52:19.133Z,100250.19
2022-11-04T05:54:45.574Z,100254.63
2022-11-04T05:57:12.090Z,100255.56
2022-11-04T05:59:38.553Z,100252.41
2022-11-04T06:02:05.082Z,100249.81
2022-11-04T06:04:31.742Z,100253.69
2022-11-04T06:06:58.171Z,100242.47
2022-11-04T06:09:39.174Z,100244.25
2022-11-04T06:12:10.382Z,100250.59
2022-11-04T06:14:37.266Z,100236.72
2022-11-04T06:17:04.320Z,100247.41
2022-11-04T06:19:30.937Z,100239.69
2022-11-04T06:21:57.545Z,100247.47
2022-11-04T06:24:24.054Z,100245.47
2022-11-04T06:26:51.676Z,100239.03
2022-11-04T06:29:19.123Z,100241.22
2022-11-04T06:31:45.589Z,100237.91
2022-11-04T06:34:12.067Z,100236.00
2022-11-04T06:36:38.676Z,100237.09
2022-11-04T06:39:06.877Z,100235.03
2022-11-04T06:41:35.610Z,100241.81
2022-11-04T06:44:02.160Z,100237.66
2022-11-04T06:46:37.963Z,100239.13
2022-11-04T06:49:07.971Z,100241.38
2022-11-04T06:51:34.496Z,100240.03
2022-11-04T06:54:01.081Z,100258.47
2022-11-04T06:56:27.536Z,100249.97
2022-11-04T06:58:54.656Z,100243.69
2022-11-04T07:01:23.504Z,100247.16
2022-11-04T07:03:53.838Z,100256.06
2022-11-04T07:06:21.126Z,100251.59
2022-11-04T07:08:48.716Z,100248.84
2022-11-04T07:11:16.467Z,100249.75
2022-11-04T07:13:43.073Z,100255.75
2022-11-04T07:16:10.075Z,100244.81
2022-11-04T07:18:36.781Z,100245.28
2022-11-04T07:21:08.750Z,100240.59
2022-11-04T07:23:36.553Z,100244.13
2022-11-04T07:26:04.783Z,100245.16
2022-11-04T07:28:31.312Z,100244.06
2022-11-04T07:30:59.626Z,100240.78
2022-11-04T07:33:26.934Z,100233.84
2022-11-04T07:35:57.986Z,100228.72
2022-11-04T07:38:25.063Z,100237.91
2022-11-04T07:40:51.569Z,100223.66
2022-11-04T07:43:18.488Z,100236.09
2022-11-04T07:45:45.054Z,100243.72
2022-11-04T07:48:11.726Z,100239.31
2022-11-04T07:50:40.376Z,100238.81
2022-11-04T07:53:07.261Z,100239.38
2022-11-04T07:55:37.786Z,100236.56
2022-11-04T07:58:09.792Z,100235.69
2022-11-04T08:00:36.275Z,100241.19
2022-11-04T08:03:02.997Z,100237.28
2022-11-04T08:05:29.631Z,100237.28
2022-11-04T08:07:57.681Z,100242.75
2022-11-04T08:10:24.168Z,100242.13
2022-11-04T08:12:51.637Z,100247.28
2022-11-04T08:15:18.232Z,100243.25
2022-11-04T08:17:45.062Z,100249.06
2022-11-04T08:20:12.219Z,100244.06
2022-11-04T08:22:39.111Z,100238.94
2022-11-04T08:25:05.978Z,100235.66
2022-11-04T08:27:32.817Z,100239.34
2022-11-04T08:29:59.266Z,100226.81
2022-11-04T08:32:25.791Z,100236.41
2022-11-04T08:34:52.324Z,100225.38
2022-11-04T08:37:18.881Z,100229.75
2022-11-04T08:39:45.374Z,100224.59
2022-11-04T08:42:11.879Z,100220.66
2022-11-04T08:44:39.756Z,100214.66
2022-11-04T08:47:06.329Z,100215.13
2022-11-04T08:49:37.958Z,100213.50
2022-11-04T08:52:04.698Z,100211.81
2022-11-04T08:54:31.363Z,100210.53
2022-11-04T08:56:58.181Z,100209.44
2022-11-04T08:59:25.689Z,100211.16
2022-11-04T09:01:52.390Z,100205.94
2022-11-04T09:04:20.197Z,100207.69
2022-11-04T09:06:46.964Z,100206.53
2022-11-04T09:09:15.490Z,100206.63
2022-11-04T09:11:43.425Z,100211.13
2022-11-04T09:14:10.880Z,100211.66
2022-11-04T09:16:38.950Z,100225.06
2022-11-04T09:19:08.119Z,100216.53
2022-11-04T09:21:34.574Z,100213.78
2022-11-04T09:24:01.271Z,100215.72
2022-11-04T09:26:28.248Z,100216.75
2022-11-04T09:28:56.479Z,100210.38
2022-11-04T09:31:23.346Z,100206.13
2022-11-04T09:33:50.527Z,100202.41
2022-11-04T09:36:17.088Z,100202.31
2022-11-04T09:38:44.951Z,100201.13
2022-11-04T09:41:29.267Z,100207.06
2022-11-04T09:44:14.917Z,100207.66
2022-11-04T09:46:41.601Z,100193.22
2022-11-04T09:49:10.866Z,100203.09
2022-11-04T09:51:53.827Z,100200.19
2022-11-04T09:54:35.212Z,100196.28
2022-11-04T09:57:02.088Z,100195.69
2022-11-04T09:59:37.445Z,100196.28
2022-11-04T10:02:25.512Z,100189.00
2022-11-04T10:05:22.735Z,100185.72
2022-11-04T10:08:00.292Z,100182.72
2022-11-04T10:11:02.425Z,100180.78
2022-11-04T10:13:52.840Z,100179.72
2022-11-04T10:16:19.600Z,100180.06
2022-11-04T10:19:19.420Z,100180.84
2022-11-04T10:22:28.573Z,100176.94
2022-11-04T10:25:15.266Z,100187.75
2022-11-04T10:27:46.679Z,100187.44
2022-11-04T10:30:39.920Z,100189.50
2022-11-04T10:33:23.200Z,100186.63
2022-11-04T10:36:18.518Z,100194.34
2022-11-04T10:38:52.170Z,100183.69
2022-11-04T10:41:26.800Z,100167.44
2022-11-04T10:44:48.087Z,100175.66
2022-11-04T10:47:40.770Z,100173.97
2022-11-04T10:50:30.473Z,100175.97
2022-11-04T10:53:19.782Z,100182.63
2022-11-04T10:56:00.310Z,100175.22
2022-11-04T10:58:34.570Z,100167.94
2022-11-04T11:01:38.293Z,100183.91
2022-11-04T11:04:12.718Z,100169.31
2022-11-04T11:06:42.425Z,100175.47
2022-11-04T11:09:13.652Z,100172.69
2022-11-04T11:11:48.367Z,100175.47
2022-11-04T11:14:34.840Z,100172.09
2022-11-04T11:17:22.325Z,100168.56
2022-11-04T11:19:59.955Z,100166.31
2022-11-04T11:22:43.149Z,100155.59
2022-11-04T11:25:22.409Z,100147.97
2022-11-04T11:28:07.211Z,100147.91
2022-11-04T11:30:52.334Z,100139.13
2022-11-04T11:33:53.352Z,100134.41
2022-11-04T11:36:44.739Z,100133.41
2022-11-04T11:39:11.169Z,100128.72
2022-11-04T11:42:01.797Z,100119.28
2022-11-04T11:44:37.488Z,100126.72
2022-11-04T11:47:19.601Z,100115.22
2022-11-04T11:52:54.124Z,100107.03
2022-11-04T11:55:24.347Z,100105.50
2022-11-04T12:01:24.026Z,100102.13
2022-11-04T12:09:54.340Z,100106.94
2022-11-04T12:12:41.966Z,100106.59
2022-11-04T12:15:33.151Z,100115.75
2022-11-04T12:18:19.298Z,100121.63
2022-11-04T12:20:57.043Z,100117.41
2022-11-04T12:23:40.269Z,100125.56
2022-11-04T12:26:29.869Z,100123.59
2022-11-04T12:29:15.006Z,100125.03
2022-11-04T12:32:12.846Z,100126.00
2022-11-04T12:34:47.730Z,100131.19
2022-11-04T12:37:36.850Z,100130.22
2022-11-04T12:40:30.035Z,100141.16
2022-11-04T12:43:16.951Z,100132.59
2022-11-04T12:45:49.332Z,100138.81
2022-11-04T12:48:57.272Z,100135.00
2022-11-04T12:51:38.321Z,100144.19
2022-11-04T12:54:26.086Z,100131.22
2022-11-04T12:57:35.630Z,100137.31
2022-11-04T13:00:04.866Z,100133.84
2022-11-04T13:02:39.886Z,100125.69
2022-11-04T13:05:23.352Z,100132.31
2022-11-04T13:08:15.386Z,100127.47
2022-11-04T13:10:51.013Z,100118.81
2022-11-04T13:13:18.788Z,100124.34
2022-11-04T13:16:20.713Z,100121.44
2022-11-04T13:21:35.666Z,100121.22
2022-11-04T13:24:38.585Z,100143.72
2022-11-04T13:27:18.479Z,100140.94
2022-11-04T13:29:45.629Z,100144.34
2022-11-04T13:32:41.836Z,100148.41
2022-11-04T13:35:35.338Z,100144.94
2022-11-04T13:38:13.249Z,100145.19
2022-11-04T13:41:21.354Z,100148.53
2022-11-04T13:44:02.185Z,100138.41
2022-11-04T13:46:32.392Z,100146.03
2022-11-04T13:49:20.957Z,100142.75
2022-11-04T13:52:07.053Z,100136.38
2022-11-04T13:54:42.215Z,100141.03
2022-11-04T13:57:31.428Z,100139.75
2022-11-04T14:00:13.104Z,100146.13
2022-11-04T14:02:49.768Z,100134.50
2022-11-04T14:05:28.777Z,100144.28
2022-11-04T14:08:01.182Z,100143.00
2022-11-04T14:10:42.738Z,100134.75
2022-11-04T14:13:27.370Z,100129.50
2022-11-04T14:16:38.534Z,100120.00
2022-11-04T14:22:31.382Z,100125.31
2022-11-04T14:25:41.897Z,100124.66
2022-11-04T14:28:14.972Z,100133.75
2022-11-04T14:30:57.929Z,100126.44
2022-11-04T14:33:54.146Z,100133.97
2022-11-04T14:36:30.937Z,100136.00
2022-11-04T14:39:13.960Z,100139.41
2022-11-04T14:41:56.662Z,100133.72
2022-11-04T14:44:34.492Z,100140.44
2022-11-04T14:47:16.228Z,100140.34
2022-11-04T14:49:49.940Z,100143.97
2022-11-04T14:52:28.522Z,100137.09
2022-11-04T14:54:58.632Z,100140.13
2022-11-04T14:57:29.086Z,100142.78
2022-11-04T14:59:55.719Z,100147.59
2022-11-04T15:02:37.246Z,100151.69
2022-11-04T15:07:44.401Z,100150.72
2022-11-04T15:10:26.837Z,100145.41
2022-11-04T15:13:00.859Z,100142.13
2022-11-04T15:15:28.663Z,100149.31
2022-11-04T15:18:06.975Z,100152.88
2022-11-04T15:20:37.162Z,100154.03
2022-11-04T15:23:04.336Z,100155.91
2022-11-04T15:25:30.812Z,100158.88
2022-11-04T15:27:57.772Z,100153.78
2022-11-04T15:30:31.015Z,100158.19
2022-11-04T15:33:03.983Z,100142.00
2022-11-04T15:35:32.361Z,100166.53
2022-11-04T15:38:01.589Z,100158.28
2022-11-04T15:40:30.735Z,100158.44
2022-11-04T15:43:00.043Z,100159.44
2022-11-04T15:45:32.622Z,100172.94
2022-11-04T15:48:21.857Z,100159.19
2022-11-04T15:50:58.200Z,100159.50
2022-11-04T15:53:24.871Z,100158.44
2022-11-04T15:55:51.450Z,100155.56
2022-11-04T15:58:19.879Z,100155.00
2022-11-04T16:00:54.086Z,100150.47
2022-11-04T16:03:23.057Z,100157.00
2022-11-04T16:06:05.946Z,100149.47
2022-11-04T16:08:33.280Z,100156.50
2022-11-04T16:11:15.114Z,100155.66
2022-11-04T16:13:42.265Z,100159.63
2022-11-04T16:16:31.945Z,100157.03
2022-11-04T16:18:58.918Z,100161.44
2022-11-04T16:21:34.477Z,100147.78
2022-11-04T16:24:29.846Z,100145.38
2022-11-04T16:27:09.154Z,100150.41
2022-11-04T16:29:37.070Z,100155.81
2022-11-04T16:32:06.845Z,100150.03
2022-11-04T16:34:38.835Z,100154.28
2022-11-04T16:37:05.430Z,100155.19
2022-11-04T16:39:32.595Z,100146.13
2022-11-04T16:41:59.326Z,100156.25
2022-11-04T16:44:26.409Z,100146.13
2022-11-04T16:46:54.124Z,100145.34
2022-11-04T16:49:23.805Z,100145.34
2022-11-04T16:52:01.132Z,100152.47
2022-11-04T16:54:50.827Z,100151.78
2022-11-04T16:57:19.383Z,100152.31
2022-11-04T16:59:45.913Z,100156.13
2022-11-04T17:02:31.768Z,100154.84
2022-11-04T17:04:58.662Z,100153.75
2022-11-04T17:07:40.626Z,100158.25
2022-11-04T17:10:30.253Z,100163.16
2022-11-04T17:12:58.224Z,100162.38
2022-11-04T17:15:25.981Z,100164.16
2022-11-04T17:17:52.542Z,100167.22
2022-11-04T17:20:19.290Z,100166.66
2022-11-04T17:22:47.075Z,100158.47
2022-11-04T17:25:25.129Z,100161.09
2022-11-04T17:27:51.635Z,100166.56
2022-11-04T17:30:21.809Z,100170.06
2022-11-04T17:32:52.221Z,100168.97
2022-11-04T17:35:18.797Z,100171.28
2022-11-04T17:37:45.669Z,100168.00
2022-11-04T17:40:17.357Z,100167.25
2022-11-04T17:43:08.354Z,100160.38
2022-11-04T17:45:39.932Z,100161.56
2022-11-04T17:48:06.669Z,100171.34
2022-11-04T17:50:33.962Z,100167.28
2022-11-04T17:53:01.840Z,100182.22
2022-11-04T17:55:28.303Z,100174.25
2022-11-04T17:57:55.399Z,100176.34
2022-11-04T18:00:24.415Z,100171.09
2022-11-04T18:02:51.062Z,100163.19
2022-11-04T18:05:19.268Z,100164.31
2022-11-04T18:07:45.772Z,100159.06
2022-11-04T18:10:12.227Z,100159.69
2022-11-04T18:12:38.867Z,100156.19
2022-11-04T18:15:10.432Z,100158.09
2022-11-04T18:17:41.101Z,100152.06
2022-11-04T18:20:15.306Z,100155.13
2022-11-04T18:22:45.041Z,100153.69
2022-11-04T18:25:14.458Z,100148.09
2022-11-04T18:27:41.133Z,100150.31
2022-11-04T18:30:08.131Z,100143.53
2022-11-04T18:32:34.649Z,100138.72
2022-11-04T18:35:01.132Z,100147.81
2022-11-04T18:37:28.483Z,100149.91
2022-11-04T18:39:55.987Z,100147.47
2022-11-04T18:42:26.137Z,100153.06
2022-11-04T18:44:52.669Z,100150.84
2022-11-04T18:47:20.225Z,100157.84
2022-11-04T18:49:47.400Z,100157.31
2022-11-04T18:52:13.854Z,100151.97
2022-11-04T18:54:42.786Z,100152.97
2022-11-04T18:57:12.021Z,100144.75
2022-11-04T18:59:38.500Z,100137.81
2022-11-04T19:02:05.908Z,100145.78
2022-11-04T19:04:51.633Z,100133.25
2022-11-04T19:07:18.719Z,100139.56
2022-11-04T19:09:48.580Z,100136.84
2022-11-04T19:12:35.276Z,100143.34
2022-11-04T19:15:04.105Z,100143.53
2022-11-04T19:17:30.667Z,100140.91
2022-11-04T19:19:58.370Z,100131.38
2022-11-04T19:22:24.960Z,100128.63
2022-11-04T19:24:53.718Z,100128.75
2022-11-04T19:27:22.937Z,100134.78
2022-11-04T19:29:49.523Z,100127.91
2022-11-04T19:32:15.962Z,100134.81
2022-11-04T19:34:43.164Z,100140.16
2022-11-04T19:37:12.786Z,100134.16
2022-11-04T19:39:41.841Z,100137.97
2022-11-04T19:42:30.032Z,100140.28
2022-11-04T19:44:56.858Z,100133.09
2022-11-04T19:47:26.069Z,100136.72
2022-11-04T19:49:52.558Z,100140.50
2022-11-04T19:52:19.469Z,100139.97
2022-11-04T19:54:46.264Z,100145.44
2022-11-04T19:57:12.810Z,100150.25
2022-11-04T19:59:39.289Z,100140.84
2022-11-04T20:02:06.033Z,100147.53
2022-11-04T20:04:32.768Z,100144.44
2022-11-04T20:06:59.210Z,100143.59
2022-11-04T20:09:26.060Z,100148.63
2022-11-04T20:12:11.338Z,100144.91
2022-11-04T20:17:24.237Z,100138.97
2022-11-04T20:19:50.976Z,100142.91
2022-11-04T20:22:17.441Z,100140.97
2022-11-04T20:24:43.979Z,100137.22
2022-11-04T20:27:15.004Z,100144.69
2022-11-04T20:29:42.867Z,100141.97
2022-11-04T20:32:09.696Z,100151.22
2022-11-04T20:34:36.147Z,100143.47
2022-11-04T20:37:03.016Z,100145.75
2022-11-04T20:39:29.591Z,100150.16
2022-11-04T20:41:57.073Z,100145.31
2022-11-04T20:44:23.624Z,100143.38
2022-11-04T20:46:50.128Z,100133.22
2022-11-04T20:49:16.579Z,100138.03
2022-11-04T20:51:48.644Z,100140.31
2022-11-04T20:54:17.057Z,100142.94
2022-11-04T20:56:44.394Z,100145.31
2022-11-04T20:59:13.053Z,100149.38
2022-11-04T21:01:41.546Z,100139.66
2022-11-04T21:04:11.456Z,100158.88
2022-11-04T21:06:39.041Z,100152.00
2022-11-04T21:09:08.307Z,100154.41
2022-11-04T21:11:35.808Z,100152.59
2022-11-04T21:14:03.433Z,100156.50
2022-11-04T21:16:30.694Z,100158.25
2022-11-04T21:18:58.205Z,100153.00
2022-11-04T21:21:27.718Z,100151.81
2022-11-04T21:24:01.451Z,100153.34
2022-11-04T21:26:29.825Z,100155.97
2022-11-04T21:29:01.941Z,100155.09
2022-11-04T21:31:29.852Z,100159.03
2022-11-04T21:33:56.840Z,100164.03
2022-11-04T21:36:26.246Z,100151.81
2022-11-04T21:38:56.361Z,100153.13
2022-11-04T21:41:37.114Z,100142.41
2022-11-04T21:44:06.243Z,100147.88
2022-11-04T21:46:43.551Z,100140.22
2022-11-04T21:49:11.656Z,100138.25
2022-11-04T21:51:38.116Z,100130.28
2022-11-04T21:54:07.278Z,100140.09
2022-11-04T21:56:34.447Z,100135.97
2022-11-04T21:59:01.272Z,100134.75
2022-11-04T22:01:29.043Z,100135.09
2022-11-04T22:04:00.179Z,100134.22
2022-11-04T22:06:33.639Z,100129.81
2022-11-04T22:09:03.576Z,100133.53
2022-11-04T22:11:31.654Z,100133.25
2022-11-04T22:14:00.130Z,100123.47
2022-11-04T22:16:31.553Z,100129.38
2022-11-04T22:19:01.214Z,100133.22
2022-11-04T22:21:28.832Z,100130.59
2022-11-04T22:23:55.665Z,100134.84
2022-11-04T22:26:31.575Z,100131.00
2022-11-04T22:28:58.838Z,100132.88
2022-11-04T22:31:37.698Z,100127.75
2022-11-04T22:34:04.721Z,100130.91
2022-11-04T22:36:32.378Z,100126.53
2022-11-04T22:38:59.459Z,100129.59
2022-11-04T22:41:30.016Z,100126.66
2022-11-04T22:43:59.115Z,100130.41
2022-11-04T22:46:31.092Z,100120.97
2022-11-04T22:49:04.033Z,100118.81
2022-11-04T22:51:35.125Z,100112.16
2022-11-04T22:54:07.657Z,100107.22
2022-11-04T22:56:36.484Z,100106.31
2022-11-04T22:59:03.741Z,100106.56
2022-11-04T23:01:37.860Z,100106.56
2022-11-04T23:04:05.059Z,100109.50
2022-11-04T23:06:31.949Z,100103.91
2022-11-04T23:09:00.361Z,100104.22
2022-11-04T23:11:49.156Z,100105.66
2022-11-04T23:14:54.799Z,100095.19
2022-11-04T23:17:42.810Z,100101.16
2022-11-04T23:20:14.287Z,100106.19
2022-11-04T23:23:02.600Z,100114.84
2022-11-04T23:25:29.089Z,100104.59
2022-11-04T23:28:15.137Z,100105.56
2022-11-04T23:30:44.872Z,100110.16
2022-11-04T23:33:14.766Z,100112.69
2022-11-04T23:36:08.326Z,100116.38
2022-11-04T23:38:42.589Z,100113.44
2022-11-04T23:41:31.760Z,100116.59
2022-11-04T23:43:59.607Z,100114.97
2022-11-04T23:46:45.909Z,100129.19
2022-11-04T23:49:12.729Z,100123.75
2022-11-04T23:51:57.842Z,100120.44
2022-11-04T23:54:50.583Z,100119.81
2022-11-04T23:57:37.544Z,100120.88
